Time;durP1;ratioP1;P1;durP2;ratioP2;P2;SDS_P1;SDS_P2;PMS_P1;PMS_P2;Temp;Humidity;BMP_temperature;BMP_pressure;BME280_temperature;BME280_humidity;BME280_pressure;Samples;Min_cycle;Max_cycle;Signal;HPM_P1;HPM_P2
2023/05/26 00:01:23;;;;;;;68.30;45.40;;;;;;;12.60;73.36;99567.68;103408;1282;98001;-77
2023/05/26 00:03:51;;;;;;;69.60;45.70;;;;;;;12.59;73.36;99560.80;103431;1282;97938;-77
2023/05/26 00:06:22;;;;;;;70.10;46.30;;;;;;;12.60;73.42;99559.89;103402;1280;111427;-76
2023/05/26 00:08:50;;;;;;;70.60;44.40;;;;;;;12.59;73.41;99559.73;103324;1280;98106;-77
2023/05/26 00:11:18;;;;;;;70.40;44.60;;;;;;;12.58;73.51;99565.84;103303;1283;107865;-76
2023/05/26 00:13:46;;;;;;;67.80;42.20;;;;;;;12.58;73.39;99566.05;103377;1286;99429;-77
2023/05/26 00:16:14;;;;;;;70.30;43.70;;;;;;;12.57;73.65;99565.23;103441;1280;99140;-76
2023/05/26 00:18:41;;;;;;;70.70;42.00;;;;;;;12.56;73.45;99566.91;103443;1280;111414;-77
2023/05/26 00:21:09;;;;;;;67.40;44.70;;;;;;;12.56;73.67;99565.50;103473;1279;97974;-77
2023/05/26 00:23:37;;;;;;;68.60;44.10;;;;;;;12.56;73.62;99565.16;103362;1279;107687;-76
2023/05/26 00:26:05;;;;;;;68.70;43.30;;;;;;;12.54;73.63;99563.48;103429;1283;97969;-78
2023/05/26 00:28:33;;;;;;;71.90;45.90;;;;;;;12.53;73.56;99557.67;103383;1280;97998;-76
2023/05/26 00:31:01;;;;;;;70.90;45.00;;;;;;;12.53;73.70;99556.98;103457;1284;111261;-76
2023/05/26 00:33:29;;;;;;;69.90;44.80;;;;;;;12.52;73.68;99556.67;103449;1277;97962;-77
2023/05/26 00:35:57;;;;;;;71.50;44.40;;;;;;;12.51;73.68;99554.79;103386;1280;107890;-77
2023/05/26 00:38:24;;;;;;;67.50;44.00;;;;;;;12.51;73.80;99554.07;103455;1279;99297;-76
2023/05/26 00:40:52;;;;;;;67.70;44.20;;;;;;;12.51;73.74;99554.48;103443;1284;97966;-76
2023/05/26 00:43:21;;;;;;;69.00;44.60;;;;;;;12.50;73.77;99553.98;103389;1279;111279;-76
2023/05/26 00:45:48;;;;;;;71.10;46.20;;;;;;;12.49;73.89;99555.32;103559;1279;98055;-77
2023/05/26 00:48:16;;;;;;;67.30;44.00;;;;;;;12.47;73.85;99553.63;103562;1280;107746;-78
2023/05/26 00:50:44;;;;;;;60.80;38.70;;;;;;;12.46;73.88;99551.92;103527;1279;98009;-78
2023/05/26 00:53:12;;;;;;;70.80;44.70;;;;;;;12.45;74.02;99550.08;103428;1280;99346;-76
2023/05/26 00:55:41;;;;;;;74.20;46.40;;;;;;;12.46;73.99;99549.66;103414;1285;111317;-78
2023/05/26 00:58:09;;;;;;;69.70;45.40;;;;;;;12.48;74.10;99549.67;103596;1276;97956;-78
2023/05/26 01:00:37;;;;;;;73.30;46.80;;;;;;;12.51;74.23;99550.16;103980;1283;107729;-78
2023/05/26 01:03:05;;;;;;;68.30;44.90;;;;;;;12.56;74.15;99553.24;104364;1279;98433;-77
2023/05/26 01:05:33;;;;;;;73.70;45.20;;;;;;;12.60;74.23;99551.46;103713;1280;97914;-76
2023/05/26 01:08:02;;;;;;;68.50;44.90;;;;;;;12.65;74.36;99551.09;104249;1279;111316;-77
2023/05/26 01:10:33;;;;;;;71.90;47.80;;;;;;;12.71;74.31;99550.67;104838;1279;98080;-77
2023/05/26 01:13:24;;;;;;;67.80;44.80;;;;;;;12.76;74.33;99556.36;103473;1291;107639;-77
2023/05/26 01:15:58;;;;;;;72.10;45.00;;;;;;;12.82;74.47;99558.79;103447;1287;98610;-77
2023/05/26 01:18:42;;;;;;;71.90;45.10;;;;;;;12.87;74.54;99558.08;103523;1277;98058;-78
2023/05/26 01:21:14;;;;;;;70.00;46.00;;;;;;;12.91;74.62;99563.43;103422;1287;111318;-77
2023/05/26 01:24:11;;;;;;;66.70;42.80;;;;;;;12.97;74.54;99560.54;103399;1286;99315;-76
2023/05/26 01:27:07;;;;;;;66.60;43.30;;;;;;;13.02;74.64;99558.37;103429;1279;107750;-76
2023/05/26 01:29:36;;;;;;;69.00;44.50;;;;;;;13.06;74.69;99559.32;103483;1280;98080;-76
2023/05/26 01:32:13;;;;;;;73.20;46.40;;;;;;;13.10;74.75;99564.71;103483;1290;97873;-76
2023/05/26 01:34:42;;;;;;;73.10;46.90;;;;;;;13.14;74.74;99563.00;103529;1292;111337;-78
2023/05/26 01:37:10;;;;;;;69.50;45.80;;;;;;;13.18;74.61;99568.96;103541;1279;98264;-78
2023/05/26 01:39:38;;;;;;;69.70;45.50;;;;;;;13.20;74.55;99565.40;103576;1277;108557;-77
2023/05/26 01:42:20;;;;;;;66.70;44.30;;;;;;;13.22;74.72;99567.93;103482;1289;99320;-78
2023/05/26 01:45:35;;;;;;;69.70;44.40;;;;;;;13.23;74.59;99565.67;103579;1277;97917;-78
2023/05/26 01:48:05;;;;;;;63.40;41.60;;;;;;;13.25;74.78;99566.96;102982;1289;111397;-78
2023/05/26 01:50:47;;;;;;;68.80;43.70;;;;;;;13.26;74.76;99565.46;103477;1283;98814;-78
2023/05/26 01:53:20;;;;;;;66.50;42.70;;;;;;;13.28;74.79;99562.70;103407;1280;107744;-77
2023/05/26 01:55:54;;;;;;;68.40;43.30;;;;;;;13.29;74.71;99562.63;104210;1276;97999;-78
2023/05/26 01:58:23;;;;;;;64.40;43.00;;;;;;;13.28;74.87;99560.88;104366;1279;161725;-77
2023/05/26 02:00:54;;;;;;;66.80;45.00;;;;;;;13.27;74.75;99563.06;103659;1280;112266;-78
2023/05/26 02:03:22;;;;;;;70.90;44.70;;;;;;;13.27;74.80;99562.40;103465;1279;99220;-77
2023/05/26 02:05:50;;;;;;;67.50;45.00;;;;;;;13.26;74.75;99559.93;103512;1280;107956;-77
2023/05/26 02:08:18;;;;;;;68.20;44.70;;;;;;;13.26;74.70;99557.66;103615;1283;98020;-77
2023/05/26 02:10:46;;;;;;;66.30;43.00;;;;;;;13.25;74.76;99562.37;103420;1283;97987;-79
2023/05/26 02:13:14;;;;;;;66.80;39.60;;;;;;;13.23;74.84;99557.27;103437;1277;111324;-77
2023/05/26 02:15:42;;;;;;;66.60;45.10;;;;;;;13.21;74.77;99554.24;103497;1282;97970;-78
2023/05/26 02:18:10;;;;;;;66.90;44.40;;;;;;;13.20;74.84;99550.27;103521;1276;109656;-77
2023/05/26 02:20:40;;;;;;;64.10;44.00;;;;;;;13.19;74.86;99556.95;103427;1279;98078;-81
2023/05/26 02:23:08;;;;;;;66.00;44.90;;;;;;;13.17;74.92;99554.98;103815;1279;97988;-81
2023/05/26 02:25:36;;;;;;;72.10;45.90;;;;;;;13.16;74.88;99549.54;103851;1279;111277;-81
2023/05/26 02:28:04;;;;;;;66.40;44.70;;;;;;;13.15;74.83;99549.73;103871;1279;97998;-80
2023/05/26 02:30:32;;;;;;;64.60;42.70;;;;;;;13.17;74.79;99546.96;103796;1281;107508;-80
2023/05/26 02:33:00;;;;;;;62.10;42.00;;;;;;;13.15;74.81;99545.48;103805;1281;98128;-80
2023/05/26 02:35:28;;;;;;;66.60;44.80;;;;;;;13.15;74.81;99546.20;105159;1276;98010;-80
2023/05/26 02:37:56;;;;;;;63.70;41.40;;;;;;;13.15;74.87;99545.13;104199;1280;111351;-80
2023/05/26 02:40:24;;;;;;;70.60;44.70;;;;;;;13.14;74.97;99543.44;104291;1277;98021;-79
2023/05/26 02:42:52;;;;;;;65.10;43.90;;;;;;;13.14;74.97;99544.81;104084;1289;108781;-80
2023/05/26 02:45:20;;;;;;;65.00;43.90;;;;;;;13.14;74.82;99542.14;104047;1279;98039;-80
2023/05/26 02:47:48;;;;;;;66.20;44.70;;;;;;;13.16;74.95;99543.30;104111;1290;97920;-79
2023/05/26 02:50:17;;;;;;;65.70;45.50;;;;;;;13.17;74.89;99544.66;106240;1276;110999;-80
2023/05/26 02:52:45;;;;;;;67.90;45.70;;;;;;;13.16;74.88;99543.45;104808;1277;98125;-78
2023/05/26 02:55:13;;;;;;;75.40;45.90;;;;;;;13.16;74.93;99545.04;103580;1279;107595;-77
2023/05/26 02:57:41;;;;;;;70.50;45.30;;;;;;;13.17;74.96;99543.92;103592;1280;98084;-78
2023/05/26 03:00:12;;;;;;;74.10;45.20;;;;;;;13.18;75.07;99547.95;103843;1280;98096;-78
2023/05/26 03:02:40;;;;;;;70.20;45.70;;;;;;;13.19;75.00;99545.91;104280;1279;110733;-78
2023/05/26 03:05:08;;;;;;;71.20;45.20;;;;;;;13.21;75.03;99548.08;103695;1279;97976;-79
2023/05/26 03:07:36;;;;;;;65.80;43.70;;;;;;;13.22;75.12;99547.09;104025;1280;107451;-78
2023/05/26 03:10:04;;;;;;;68.80;46.10;;;;;;;13.23;75.03;99550.17;103474;1288;98055;-78
2023/05/26 03:12:32;;;;;;;63.50;42.20;;;;;;;13.25;75.06;99545.75;103658;1289;98098;-79
2023/05/26 03:15:00;;;;;;;61.20;41.50;;;;;;;13.29;75.01;99547.65;105086;1281;111235;-79
2023/05/26 03:17:28;;;;;;;66.30;44.10;;;;;;;13.31;75.11;99546.95;103488;1283;98017;-79
2023/05/26 03:19:56;;;;;;;62.80;43.20;;;;;;;13.31;75.00;99543.75;103525;1290;107545;-77
2023/05/26 03:22:25;;;;;;;63.40;41.40;;;;;;;13.31;75.10;99543.74;104741;1275;98001;-78
2023/05/26 03:25:12;;;;;;;62.20;42.40;;;;;;;13.31;75.03;99542.49;104676;1279;98017;-79
2023/05/26 03:27:40;;;;;;;60.70;41.60;;;;;;;13.32;75.06;99545.45;104820;1276;110814;-78
2023/05/26 03:30:08;;;;;;;64.00;42.40;;;;;;;13.34;75.20;99541.91;104008;1276;97908;-78
2023/05/26 03:32:38;;;;;;;60.10;41.00;;;;;;;13.37;75.17;99540.89;106140;1277;107478;-77
2023/05/26 03:35:13;;;;;;;60.30;41.60;;;;;;;13.42;75.18;99540.23;105904;1279;96412;-78
2023/05/26 03:37:41;;;;;;;64.30;40.40;;;;;;;13.46;75.18;99537.65;103592;1280;98923;-78
2023/05/26 03:40:09;;;;;;;62.40;40.80;;;;;;;13.51;75.24;99543.88;103491;1284;111476;-78
2023/05/26 03:42:40;;;;;;;61.80;41.30;;;;;;;13.52;75.16;99547.85;103571;1283;98084;-79
2023/05/26 03:45:08;;;;;;;59.10;39.80;;;;;;;13.55;75.18;99545.34;103499;1288;107486;-78
2023/05/26 03:47:35;;;;;;;59.00;41.30;;;;;;;13.60;75.16;99547.96;103422;1288;97976;-78
2023/05/26 03:50:05;;;;;;;61.30;40.80;;;;;;;13.64;75.32;99547.29;103430;1283;98720;-78
2023/05/26 03:52:34;;;;;;;58.70;39.80;;;;;;;13.69;75.30;99545.13;103389;1281;111329;-78
2023/05/26 03:55:03;;;;;;;58.20;40.20;;;;;;;13.74;75.36;99550.95;103468;1290;98068;-78
2023/05/26 03:57:31;;;;;;;59.10;41.40;;;;;;;13.79;75.25;99551.45;103335;1276;106820;-78
2023/05/26 03:59:59;;;;;;;61.80;42.40;;;;;;;13.85;75.35;99553.14;103459;1289;98049;-78
2023/05/26 04:02:27;;;;;;;58.70;39.20;;;;;;;13.90;75.32;99550.48;104420;1279;98126;-78
2023/05/26 04:04:56;;;;;;;58.00;39.80;;;;;;;13.91;75.37;99549.98;103551;1282;111793;-78
2023/05/26 04:07:24;;;;;;;59.30;40.30;;;;;;;13.94;75.37;99549.79;104332;1280;97975;-78
2023/05/26 04:09:52;;;;;;;61.60;41.70;;;;;;;13.96;75.38;99547.08;104095;1279;106376;-78
2023/05/26 04:12:19;;;;;;;60.30;41.70;;;;;;;13.97;75.26;99542.04;104163;1277;97915;-78
2023/05/26 04:14:48;;;;;;;60.30;40.40;;;;;;;13.99;75.25;99543.46;104169;1276;97904;-78
2023/05/26 04:17:16;;;;;;;57.40;38.30;;;;;;;14.01;75.31;99545.17;104423;1276;110861;-78
2023/05/26 04:19:44;;;;;;;58.50;40.10;;;;;;;14.01;75.26;99547.31;104210;1279;97886;-78
2023/05/26 04:22:12;;;;;;;58.20;39.80;;;;;;;14.00;75.28;99547.34;104363;1276;108212;-78
2023/05/26 04:24:40;;;;;;;54.60;36.80;;;;;;;14.01;75.20;99552.10;104061;1279;97931;-78
2023/05/26 04:27:09;;;;;;;59.40;37.50;;;;;;;14.02;75.26;99554.52;106713;1277;96077;-79
2023/05/26 04:29:38;;;;;;;54.90;36.90;;;;;;;14.03;75.19;99558.40;106295;1276;110953;-79
2023/05/26 04:32:08;;;;;;;55.70;37.90;;;;;;;14.04;75.22;99561.68;106178;1276;97883;-78
2023/05/26 04:34:37;;;;;;;56.10;38.20;;;;;;;14.07;75.25;99566.41;105533;1276;107838;-78
2023/05/26 04:37:05;;;;;;;53.60;37.80;;;;;;;14.11;75.35;99566.79;105768;1276;97820;-79
2023/05/26 04:39:32;;;;;;;53.10;36.50;;;;;;;14.19;75.33;99565.09;105212;1277;98003;-79
2023/05/26 04:42:03;;;;;;;52.70;37.30;;;;;;;14.26;75.43;99562.23;103549;1279;110452;-79
2023/05/26 04:44:32;;;;;;;52.70;36.90;;;;;;;14.29;75.35;99563.58;103614;1277;97999;-79
2023/05/26 04:47:03;;;;;;;52.70;36.60;;;;;;;14.33;75.31;99564.03;103514;1280;107892;-79
2023/05/26 04:49:32;;;;;;;52.70;35.40;;;;;;;14.39;75.44;99562.25;104816;1275;98482;-79
2023/05/26 04:52:01;;;;;;;57.10;39.00;;;;;;;14.46;75.34;99564.05;106327;1276;96386;-79
2023/05/26 04:54:29;;;;;;;54.30;37.30;;;;;;;14.55;75.50;99561.17;106278;1276;111453;-79
2023/05/26 04:56:58;;;;;;;52.80;34.80;;;;;;;14.71;75.79;99560.09;106295;1275;96091;-79
2023/05/26 04:59:26;;;;;;;51.70;34.80;;;;;;;14.94;75.94;99558.41;106211;1275;107515;-79
2023/05/26 05:01:54;;;;;;;49.40;34.30;;;;;;;15.16;75.98;99563.52;103793;1283;99311;-79
2023/05/26 05:04:22;;;;;;;52.50;34.10;;;;;;;15.32;76.11;99561.08;106932;1275;95690;-77
2023/05/26 05:06:49;;;;;;;51.90;35.70;;;;;;;15.42;75.78;99560.61;105516;1275;110394;-76
2023/05/26 05:09:17;;;;;;;48.00;34.00;;;;;;;15.44;75.50;99557.73;103584;1291;97997;-78
2023/05/26 05:11:46;;;;;;;48.50;33.50;;;;;;;15.47;75.21;99561.30;104479;1279;107575;-77
2023/05/26 05:14:14;;;;;;;51.80;33.50;;;;;;;15.47;75.28;99560.04;103717;1276;97979;-78
2023/05/26 05:16:42;;;;;;;49.00;33.70;;;;;;;15.51;75.32;99558.78;103551;1279;97965;-77
2023/05/26 05:19:10;;;;;;;46.20;31.50;;;;;;;15.55;75.21;99560.40;103496;1276;111320;-78
2023/05/26 05:21:37;;;;;;;50.20;33.90;;;;;;;15.57;75.28;99560.23;103453;1289;98053;-78
2023/05/26 05:24:06;;;;;;;48.70;33.40;;;;;;;15.67;75.39;99559.73;103432;1288;106752;-79
2023/05/26 05:26:34;;;;;;;49.50;32.40;;;;;;;15.73;75.18;99560.63;103410;1289;98100;-78
2023/05/26 05:29:02;;;;;;;46.90;30.70;;;;;;;15.77;75.17;99558.33;103394;1280;97963;-78
2023/05/26 05:31:29;;;;;;;48.80;33.70;;;;;;;15.80;74.99;99561.17;103405;1284;110487;-78
2023/05/26 05:33:57;;;;;;;46.80;30.50;;;;;;;15.81;75.03;99562.16;103432;1279;97994;-76
2023/05/26 05:36:25;;;;;;;45.80;31.10;;;;;;;15.77;74.91;99562.28;103486;1279;107782;-78
2023/05/26 05:38:53;;;;;;;45.50;32.30;;;;;;;15.72;74.91;99563.25;103512;1280;98493;-77
2023/05/26 05:41:22;;;;;;;47.80;32.70;;;;;;;15.71;75.08;99564.05;103396;1283;97994;-78
2023/05/26 05:43:50;;;;;;;48.40;33.20;;;;;;;15.70;75.03;99561.81;103433;1278;111373;-79
2023/05/26 05:46:17;;;;;;;49.80;33.50;;;;;;;15.68;74.82;99558.27;103362;1277;98098;-78
2023/05/26 05:48:46;;;;;;;44.80;31.00;;;;;;;15.62;74.88;99561.80;103435;1279;107371;-78
2023/05/26 05:51:14;;;;;;;48.10;31.70;;;;;;;15.64;74.99;99565.02;103434;1290;98081;-78
2023/05/26 05:53:43;;;;;;;48.10;33.50;;;;;;;15.67;74.98;99568.36;103385;1280;97998;-78
2023/05/26 05:56:12;;;;;;;47.80;33.20;;;;;;;15.70;74.96;99568.96;103462;1276;111315;-78
2023/05/26 05:58:40;;;;;;;46.10;30.40;;;;;;;15.80;75.21;99568.99;103454;1282;98007;-78
2023/05/26 06:01:08;;;;;;;49.90;33.40;;;;;;;15.94;75.11;99570.92;103519;1280;107875;-78
2023/05/26 06:03:36;;;;;;;46.20;30.80;;;;;;;16.03;74.92;99571.73;103375;1277;97931;-78
2023/05/26 06:06:05;;;;;;;46.90;32.50;;;;;;;16.10;74.93;99573.06;103424;1288;97890;-78
2023/05/26 06:08:33;;;;;;;44.80;30.60;;;;;;;16.25;75.06;99574.75;103482;1280;111323;-78
2023/05/26 06:11:02;;;;;;;47.00;32.10;;;;;;;16.43;75.21;99574.10;103379;1281;97967;-78
2023/05/26 06:13:30;;;;;;;50.70;32.40;;;;;;;16.58;74.94;99575.49;103514;1280;108902;-78
2023/05/26 06:15:58;;;;;;;46.30;32.80;;;;;;;16.68;74.79;99576.91;103559;1280;98097;-79
2023/05/26 06:18:26;;;;;;;43.70;30.30;;;;;;;16.71;74.74;99578.46;103479;1276;98228;-78
2023/05/26 06:20:54;;;;;;;46.10;27.80;;;;;;;16.76;74.97;99580.10;103389;1277;111989;-78
2023/05/26 06:23:23;;;;;;;47.70;30.10;;;;;;;16.80;74.80;99576.13;103455;1280;97967;-78
2023/05/26 06:25:52;;;;;;;43.40;30.80;;;;;;;16.87;74.78;99578.27;103501;1277;106942;-78
2023/05/26 06:28:20;;;;;;;41.70;28.90;;;;;;;16.97;74.92;99573.76;103531;1279;98148;-78
2023/05/26 06:30:47;;;;;;;42.30;28.50;;;;;;;17.08;74.89;99577.83;103418;1279;98010;-78
2023/05/26 06:33:15;;;;;;;45.90;29.60;;;;;;;17.23;74.83;99570.93;103402;1281;111349;-78
2023/05/26 06:35:43;;;;;;;40.50;25.80;;;;;;;17.34;74.66;99568.12;103379;1277;97982;-78
2023/05/26 06:38:11;;;;;;;40.00;25.30;;;;;;;17.40;74.18;99570.39;103399;1279;106767;-77
2023/05/26 06:40:40;;;;;;;34.80;23.40;;;;;;;17.49;74.40;99571.67;103490;1276;98022;-78
2023/05/26 06:43:07;;;;;;;36.80;23.80;;;;;;;17.60;73.91;99570.83;103441;1277;97985;-78
2023/05/26 06:45:35;;;;;;;37.60;24.50;;;;;;;17.60;74.11;99566.02;103505;1286;111290;-78
2023/05/26 06:48:03;;;;;;;39.60;24.80;;;;;;;17.71;74.40;99569.34;103551;1290;97911;-78
2023/05/26 06:50:31;;;;;;;34.60;23.60;;;;;;;17.82;74.44;99567.58;103479;1286;107780;-77
2023/05/26 06:52:59;;;;;;;40.60;26.20;;;;;;;17.91;74.41;99570.10;103343;1279;98353;-77
2023/05/26 06:55:28;;;;;;;40.60;26.80;;;;;;;17.98;74.47;99575.70;103372;1294;97927;-78
2023/05/26 06:57:55;;;;;;;40.10;26.30;;;;;;;18.06;74.35;99575.41;103461;1284;112633;-78
2023/05/26 07:00:23;;;;;;;40.90;27.40;;;;;;;18.18;74.37;99578.32;103534;1280;99318;-78
2023/05/26 07:02:51;;;;;;;37.30;25.70;;;;;;;18.30;74.33;99574.85;103398;1288;107640;-78
2023/05/26 07:05:19;;;;;;;37.90;25.80;;;;;;;18.42;73.95;99578.20;103618;1289;98026;-79
2023/05/26 07:07:47;;;;;;;40.40;26.90;;;;;;;18.57;74.32;99578.73;103375;1279;97984;-78
2023/05/26 07:10:16;;;;;;;33.80;23.10;;;;;;;18.75;74.30;99572.96;103438;1279;111315;-78
2023/05/26 07:12:44;;;;;;;38.40;24.20;;;;;;;18.93;74.20;99574.64;103501;1279;99287;-79
2023/05/26 07:15:12;;;;;;;35.40;21.80;;;;;;;19.00;73.97;99571.45;103502;1277;108453;-80
2023/05/26 07:17:39;;;;;;;35.70;21.60;;;;;;;18.99;73.74;99569.58;103462;1279;98103;-79
2023/05/26 07:20:08;;;;;;;36.40;24.10;;;;;;;18.91;73.53;99574.48;103610;1279;97902;-80
2023/05/26 07:22:36;;;;;;;34.50;21.90;;;;;;;18.86;73.68;99575.87;103498;1283;111233;-79
2023/05/26 07:25:05;;;;;;;33.90;22.00;;;;;;;18.77;73.38;99579.04;103569;1288;97988;-77
2023/05/26 07:27:33;;;;;;;33.10;22.30;;;;;;;18.76;73.45;99583.09;103505;1276;107722;-78
2023/05/26 07:30:01;;;;;;;33.40;23.50;;;;;;;18.83;73.57;99579.74;103660;1277;98001;-77
2023/05/26 07:32:28;;;;;;;32.50;21.70;;;;;;;18.92;73.50;99578.56;103601;1280;99140;-77
2023/05/26 07:34:56;;;;;;;36.40;24.00;;;;;;;18.99;73.32;99576.94;103553;1276;111159;-77
2023/05/26 07:37:25;;;;;;;35.30;24.00;;;;;;;19.05;73.21;99576.15;103615;1282;97921;-78
2023/05/26 07:39:53;;;;;;;34.70;22.10;;;;;;;19.08;73.11;99576.41;103408;1277;106987;-78
2023/05/26 07:42:21;;;;;;;31.90;21.30;;;;;;;19.11;73.09;99581.37;103460;1276;97920;-79
2023/05/26 07:44:49;;;;;;;32.80;21.50;;;;;;;19.12;73.00;99579.79;103997;1276;98410;-79
2023/05/26 07:47:17;;;;;;;33.70;23.10;;;;;;;19.16;73.14;99580.48;104219;1279;111334;-78
2023/05/26 07:49:45;;;;;;;32.00;20.90;;;;;;;19.25;73.36;99577.81;104252;1276;99246;-79
2023/05/26 07:52:13;;;;;;;37.30;23.50;;;;;;;19.35;73.19;99574.95;104199;1279;108133;-77
2023/05/26 07:54:42;;;;;;;34.70;22.70;;;;;;;19.42;73.11;99572.08;104409;1280;98110;-77
2023/05/26 07:57:10;;;;;;;32.30;21.30;;;;;;;19.45;73.20;99573.78;104408;1276;98039;-78
2023/05/26 07:59:48;;;;;;;33.50;21.50;;;;;;;19.42;72.16;99575.34;104316;1279;111361;-78
2023/05/26 08:02:17;;;;;;;34.80;22.20;;;;;;;19.32;72.50;99574.59;104173;1276;97986;-77
2023/05/26 08:04:45;;;;;;;35.60;23.10;;;;;;;19.26;72.49;99576.58;104024;1275;109991;-78
2023/05/26 08:07:13;;;;;;;32.80;21.90;;;;;;;19.26;72.49;99577.54;104860;1278;97976;-77
2023/05/26 08:09:40;;;;;;;33.60;22.30;;;;;;;19.28;72.68;99574.23;103558;1279;99300;-78
2023/05/26 08:12:08;;;;;;;30.30;20.20;;;;;;;19.34;72.58;99582.80;103577;1289;112224;-77
2023/05/26 08:14:36;;;;;;;34.60;22.70;;;;;;;19.30;72.42;99584.48;104589;1276;98083;-78
2023/05/26 08:17:04;;;;;;;34.50;23.40;;;;;;;19.29;72.40;99580.41;103666;1277;107736;-77
2023/05/26 08:19:32;;;;;;;34.00;23.70;;;;;;;19.34;72.40;99578.29;103724;1278;98013;-78
2023/05/26 08:22:00;;;;;;;32.60;21.50;;;;;;;19.36;72.30;99582.26;103609;1279;97892;-79
2023/05/26 08:24:28;;;;;;;33.80;22.50;;;;;;;19.34;71.78;99586.27;103622;1280;111563;-77
2023/05/26 08:26:56;;;;;;;35.10;23.10;;;;;;;19.28;71.91;99585.76;103367;1277;98091;-77
2023/05/26 08:29:24;;;;;;;35.80;22.90;;;;;;;19.32;72.17;99588.42;103370;1276;106439;-77
2023/05/26 08:31:53;;;;;;;32.30;21.80;;;;;;;19.45;72.37;99586.16;103399;1281;99176;-79
2023/05/26 08:34:21;;;;;;;33.70;22.80;;;;;;;19.61;72.36;99581.69;103423;1280;98000;-78
2023/05/26 08:36:49;;;;;;;34.10;23.20;;;;;;;19.77;72.36;99578.63;103322;1280;111321;-78
2023/05/26 08:39:16;;;;;;;34.90;22.40;;;;;;;19.92;72.37;99578.34;103466;1276;98081;-78
2023/05/26 08:41:51;;;;;;;34.90;21.40;;;;;;;20.04;72.29;99573.55;103323;1292;107495;-78
2023/05/26 08:44:20;;;;;;;31.30;20.30;;;;;;;20.14;71.94;99571.61;103389;1279;97911;-78
2023/05/26 08:46:55;;;;;;;30.40;19.00;;;;;;;20.22;71.97;99569.89;103427;1276;97995;-78
2023/05/26 08:49:24;;;;;;;30.00;19.80;;;;;;;20.31;72.00;99566.11;103483;1279;111355;-78
2023/05/26 08:52:04;;;;;;;36.60;21.40;;;;;;;20.35;71.86;99566.73;103522;1279;101575;-76
2023/05/26 08:54:33;;;;;;;32.60;20.30;;;;;;;20.41;71.82;99564.69;103427;1276;107532;-78
2023/05/26 08:57:03;;;;;;;33.00;20.40;;;;;;;20.47;71.89;99565.23;103465;1287;99324;-78
2023/05/26 08:59:32;;;;;;;32.10;20.00;;;;;;;20.57;71.77;99565.52;103449;1279;97914;-78
2023/05/26 09:02:00;;;;;;;31.30;20.70;;;;;;;20.69;71.86;99564.03;103466;1276;112230;-78
2023/05/26 09:04:29;;;;;;;33.10;20.00;;;;;;;20.79;71.80;99566.54;103387;1279;98010;-77
2023/05/26 09:06:58;;;;;;;33.30;19.50;;;;;;;20.91;71.71;99568.02;103568;1276;107724;-78
2023/05/26 09:09:46;;;;;;;30.20;19.20;;;;;;;20.98;71.39;99564.77;103427;1279;98145;-78
2023/05/26 09:12:15;;;;;;;30.20;19.10;;;;;;;21.03;71.57;99566.75;103487;1279;98453;-78
2023/05/26 09:14:43;;;;;;;33.80;19.30;;;;;;;21.08;71.44;99562.77;103487;1279;111381;-78
2023/05/26 09:17:13;;;;;;;29.00;18.40;;;;;;;21.16;71.23;99564.43;103487;1276;98002;-78
2023/05/26 09:19:41;;;;;;;27.20;17.50;;;;;;;21.22;71.00;99559.80;103360;1279;107693;-79
2023/05/26 09:22:11;;;;;;;28.70;17.90;;;;;;;21.30;71.13;99551.29;103489;1280;98039;-77
2023/05/26 09:24:47;;;;;;;30.20;19.10;;;;;;;21.43;71.22;99545.18;103619;1276;97992;-78
2023/05/26 09:27:21;;;;;;;27.10;16.90;;;;;;;21.60;71.15;99547.34;103531;1279;109962;-78
2023/05/26 09:29:53;;;;;;;28.20;17.40;;;;;;;21.78;71.19;99547.69;103366;1279;98548;-78
2023/05/26 09:32:26;;;;;;;25.20;17.30;;;;;;;22.03;71.24;99539.32;103412;1276;107592;-78
2023/05/26 09:34:56;;;;;;;26.80;17.80;;;;;;;22.22;70.86;99540.16;103380;1279;99452;-78
2023/05/26 09:37:29;;;;;;;26.10;16.60;;;;;;;22.37;70.79;99537.02;103358;1288;98069;-78
2023/05/26 09:40:08;;;;;;;25.80;17.40;;;;;;;22.49;70.67;99536.98;103488;1280;111016;-77
2023/05/26 09:42:38;;;;;;;29.80;18.50;;;;;;;22.57;70.12;99533.59;103553;1279;98081;-78
2023/05/26 09:45:06;;;;;;;26.90;16.70;;;;;;;22.53;70.16;99534.08;103478;1279;107774;-78
2023/05/26 09:47:35;;;;;;;29.70;18.10;;;;;;;22.49;70.36;99534.27;103537;1279;97985;-78
2023/05/26 09:50:06;;;;;;;26.50;17.20;;;;;;;22.50;70.03;99534.58;103450;1280;99199;-77
2023/05/26 09:52:36;;;;;;;28.20;17.70;;;;;;;22.52;70.05;99532.73;103464;1277;111353;-77
2023/05/26 09:55:05;;;;;;;26.40;16.50;;;;;;;22.55;69.63;99525.50;103438;1276;98097;-77
2023/05/26 09:57:35;;;;;;;26.30;16.50;;;;;;;22.58;69.11;99528.13;103436;1279;107727;-77
2023/05/26 10:00:07;;;;;;;24.10;15.70;;;;;;;22.55;68.22;99525.84;103502;1277;98568;-77
2023/05/26 10:02:36;;;;;;;26.20;14.60;;;;;;;22.50;68.24;99525.28;103463;1278;97967;-78
2023/05/26 10:05:06;;;;;;;25.10;14.30;;;;;;;22.49;68.99;99518.92;103418;1279;111350;-78
2023/05/26 10:07:34;;;;;;;22.80;13.90;;;;;;;22.54;69.07;99524.63;103550;1279;97994;-77
2023/05/26 10:10:03;;;;;;;22.10;14.60;;;;;;;22.52;67.80;99515.66;103453;1280;107804;-77
2023/05/26 10:12:33;;;;;;;24.70;14.90;;;;;;;22.50;67.62;99517.02;103493;1279;99221;-78
2023/05/26 10:15:03;;;;;;;26.90;15.30;;;;;;;22.53;68.00;99513.55;103466;1277;98131;-77
2023/05/26 10:17:31;;;;;;;24.70;14.80;;;;;;;22.66;67.96;99515.54;103523;1277;111949;-78
2023/05/26 10:20:01;;;;;;;25.30;15.10;;;;;;;22.84;68.29;99510.16;103458;1279;98120;-77
2023/05/26 10:22:38;;;;;;;24.30;14.30;;;;;;;23.00;68.09;99506.64;103360;1277;107751;-77
2023/05/26 10:25:20;;;;;;;25.80;14.50;;;;;;;23.16;67.63;99502.64;103385;1277;99206;-78
2023/05/26 10:27:58;;;;;;;24.00;14.50;;;;;;;23.19;67.82;99497.57;103410;1279;98008;-77
2023/05/26 10:30:27;;;;;;;22.40;13.30;;;;;;;23.24;67.81;99496.15;103365;1279;111306;-78
2023/05/26 10:33:06;;;;;;;24.90;14.80;;;;;;;23.17;67.08;99498.66;103569;1279;97982;-77
2023/05/26 10:35:35;;;;;;;21.40;13.20;;;;;;;23.01;66.34;99500.77;103445;1286;107502;-77
2023/05/26 10:38:03;;;;;;;22.60;13.70;;;;;;;22.92;67.16;99494.30;103362;1280;98013;-77
2023/05/26 10:40:34;;;;;;;21.30;12.10;;;;;;;22.98;65.95;99497.92;103492;1280;97976;-77
2023/05/26 10:43:12;;;;;;;22.40;12.30;;;;;;;23.02;66.69;99495.41;103532;1276;111774;-78
2023/05/26 10:45:50;;;;;;;19.80;12.00;;;;;;;23.13;66.34;99487.31;103439;1279;99230;-77
2023/05/26 10:48:19;;;;;;;20.50;12.10;;;;;;;23.11;65.88;99485.14;103512;1277;107889;-77
2023/05/26 10:50:59;;;;;;;20.20;11.70;;;;;;;23.09;66.12;99484.32;103543;1279;98338;-77
2023/05/26 10:53:32;;;;;;;19.90;12.00;;;;;;;23.09;66.00;99483.52;103546;1279;98096;-76
2023/05/26 10:56:03;;;;;;;19.80;11.90;;;;;;;23.06;65.15;99484.29;103435;1276;111044;-77
2023/05/26 10:58:34;;;;;;;19.70;11.20;;;;;;;22.98;65.42;99483.61;103483;1276;99177;-77
2023/05/26 11:01:16;;;;;;;21.80;12.60;;;;;;;22.98;65.10;99486.41;103494;1279;107793;-76
2023/05/26 11:03:46;;;;;;;24.20;12.00;;;;;;;22.97;65.30;99486.46;103607;1276;98003;-77
2023/05/26 11:06:31;;;;;;;21.00;11.80;;;;;;;22.94;64.84;99487.12;103574;1276;98011;-77
2023/05/26 11:09:05;;;;;;;22.80;11.10;;;;;;;22.92;64.80;99484.34;103399;1274;109618;-77
2023/05/26 11:11:34;;;;;;;19.20;10.80;;;;;;;23.01;65.12;99475.84;103493;1280;98020;-77
2023/05/26 11:14:04;;;;;;;19.80;10.40;;;;;;;23.08;64.67;99471.75;103368;1279;108895;-77
2023/05/26 11:16:37;;;;;;;20.30;11.90;;;;;;;23.12;64.60;99467.64;103453;1276;97957;-77
2023/05/26 11:19:08;;;;;;;23.10;12.40;;;;;;;23.19;64.52;99470.59;103377;1279;98534;-77